Penysarn, United Kingdom
Current Conditions -  °F | °C
As of 10:50 AM on Thursday 18 Dec 2014 (Local Time) from EGOV Reporting Station
Overcast Overcast  
Wind Chill: 54°   Ceiling: 9000
Heat Index: 54°   Visibility: 6mi
Dew Point: 52°   Wind: 30mph
Humidity: 94%   Direction: 210°SSW
Pressure: 29.62"   Gusts: NA
Location:  53.39°N, 4.32°W
Report Text: EGOV 181050Z 21026KT 9999 SCT009 SCT024 OVC090 12/11 Q1003 GRN TEMPO FEW009 WHT
Loading
Personal Weather Stations






























Interactive Weather Map New forecast layout! Learn more

10-Day Weather Forecast

Advertisements
Track Severe Weather on mobile